sensor_id;sensor_type;location;lat;lon;timestamp;P1;durP1;ratioP1;P2;durP2;ratioP2
71108;SDS011;59614;51.012;-1.648;2023-07-09T00:01:47;27.95;;;5.05;;
71108;SDS011;59614;51.012;-1.648;2023-07-09T00:04:12;35.95;;;5.20;;
71108;SDS011;59614;51.012;-1.648;2023-07-09T00:06:38;36.38;;;4.78;;
71108;SDS011;59614;51.012;-1.648;2023-07-09T00:09:05;23.23;;;4.30;;
71108;SDS011;59614;51.012;-1.648;2023-07-09T00:11:31;27.40;;;4.93;;
71108;SDS011;59614;51.012;-1.648;2023-07-09T00:13:57;27.67;;;4.88;;
71108;SDS011;59614;51.012;-1.648;2023-07-09T00:16:25;17.45;;;4.15;;
71108;SDS011;59614;51.012;-1.648;2023-07-09T00:18:51;20.38;;;4.70;;
71108;SDS011;59614;51.012;-1.648;2023-07-09T00:21:17;24.63;;;5.03;;
71108;SDS011;59614;51.012;-1.648;2023-07-09T00:23:45;20.25;;;5.15;;
71108;SDS011;59614;51.012;-1.648;2023-07-09T00:26:12;26.73;;;5.43;;
71108;SDS011;59614;51.012;-1.648;2023-07-09T00:28:39;21.73;;;4.80;;
71108;SDS011;59614;51.012;-1.648;2023-07-09T00:31:05;20.42;;;4.78;;
71108;SDS011;59614;51.012;-1.648;2023-07-09T00:33:31;28.52;;;4.53;;
71108;SDS011;59614;51.012;-1.648;2023-07-09T00:35:57;19.95;;;5.18;;
71108;SDS011;59614;51.012;-1.648;2023-07-09T00:38:24;18.63;;;4.10;;
71108;SDS011;59614;51.012;-1.648;2023-07-09T00:43:24;25.42;;;4.85;;
71108;SDS011;59614;51.012;-1.648;2023-07-09T00:49:05;22.45;;;4.53;;
71108;SDS011;59614;51.012;-1.648;2023-07-09T00:51:38;13.75;;;3.80;;
71108;SDS011;59614;51.012;-1.648;2023-07-09T00:54:28;20.05;;;4.90;;
71108;SDS011;59614;51.012;-1.648;2023-07-09T00:57:01;26.05;;;4.18;;
71108;SDS011;59614;51.012;-1.648;2023-07-09T00:59:42;18.25;;;4.60;;
71108;SDS011;59614;51.012;-1.648;2023-07-09T01:02:10;21.58;;;4.07;;
71108;SDS011;59614;51.012;-1.648;2023-07-09T01:04:36;11.13;;;3.80;;
71108;SDS011;59614;51.012;-1.648;2023-07-09T01:07:03;25.15;;;4.97;;
71108;SDS011;59614;51.012;-1.648;2023-07-09T01:09:29;23.65;;;4.40;;
71108;SDS011;59614;51.012;-1.648;2023-07-09T01:11:54;22.08;;;4.80;;
71108;SDS011;59614;51.012;-1.648;2023-07-09T01:16:52;20.88;;;4.07;;
71108;SDS011;59614;51.012;-1.648;2023-07-09T01:19:26;14.15;;;3.88;;
71108;SDS011;59614;51.012;-1.648;2023-07-09T01:21:57;16.13;;;4.20;;
71108;SDS011;59614;51.012;-1.648;2023-07-09T01:27:14;20.45;;;4.50;;
71108;SDS011;59614;51.012;-1.648;2023-07-09T01:29:41;22.17;;;4.77;;
71108;SDS011;59614;51.012;-1.648;2023-07-09T01:32:08;13.32;;;3.63;;
71108;SDS011;59614;51.012;-1.648;2023-07-09T01:34:35;12.07;;;4.45;;
71108;SDS011;59614;51.012;-1.648;2023-07-09T01:37:00;11.95;;;3.90;;
71108;SDS011;59614;51.012;-1.648;2023-07-09T01:39:26;16.10;;;3.63;;
71108;SDS011;59614;51.012;-1.648;2023-07-09T01:41:53;18.00;;;3.67;;
71108;SDS011;59614;51.012;-1.648;2023-07-09T01:44:19;13.88;;;3.92;;
71108;SDS011;59614;51.012;-1.648;2023-07-09T01:46:44;13.15;;;4.32;;
71108;SDS011;59614;51.012;-1.648;2023-07-09T01:49:10;17.52;;;4.35;;
71108;SDS011;59614;51.012;-1.648;2023-07-09T01:51:36;14.57;;;4.13;;
71108;SDS011;59614;51.012;-1.648;2023-07-09T01:54:02;16.80;;;4.15;;
71108;SDS011;59614;51.012;-1.648;2023-07-09T01:56:28;21.35;;;4.53;;
71108;SDS011;59614;51.012;-1.648;2023-07-09T01:58:54;20.20;;;4.03;;
71108;SDS011;59614;51.012;-1.648;2023-07-09T02:01:29;18.67;;;4.15;;
71108;SDS011;59614;51.012;-1.648;2023-07-09T02:03:55;17.45;;;4.47;;
71108;SDS011;59614;51.012;-1.648;2023-07-09T02:06:20;15.57;;;3.65;;
71108;SDS011;59614;51.012;-1.648;2023-07-09T02:08:49;16.48;;;3.42;;
71108;SDS011;59614;51.012;-1.648;2023-07-09T02:11:14;18.50;;;3.80;;
71108;SDS011;59614;51.012;-1.648;2023-07-09T02:13:40;14.93;;;3.30;;
71108;SDS011;59614;51.012;-1.648;2023-07-09T02:16:05;19.02;;;3.58;;
71108;SDS011;59614;51.012;-1.648;2023-07-09T02:18:30;20.88;;;3.60;;
71108;SDS011;59614;51.012;-1.648;2023-07-09T02:20:56;35.30;;;4.25;;
71108;SDS011;59614;51.012;-1.648;2023-07-09T02:23:25;37.95;;;4.45;;
71108;SDS011;59614;51.012;-1.648;2023-07-09T02:25:54;28.98;;;4.32;;
71108;SDS011;59614;51.012;-1.648;2023-07-09T02:28:19;24.60;;;4.75;;
71108;SDS011;59614;51.012;-1.648;2023-07-09T02:30:45;18.30;;;4.70;;
71108;SDS011;59614;51.012;-1.648;2023-07-09T02:33:10;14.25;;;4.20;;
71108;SDS011;59614;51.012;-1.648;2023-07-09T02:35:36;12.50;;;3.92;;
71108;SDS011;59614;51.012;-1.648;2023-07-09T02:38:02;10.65;;;4.18;;
71108;SDS011;59614;51.012;-1.648;2023-07-09T02:40:27;9.82;;;3.65;;
71108;SDS011;59614;51.012;-1.648;2023-07-09T02:42:53;16.42;;;3.28;;
71108;SDS011;59614;51.012;-1.648;2023-07-09T02:45:19;21.67;;;3.80;;
71108;SDS011;59614;51.012;-1.648;2023-07-09T02:47:44;9.35;;;3.30;;
71108;SDS011;59614;51.012;-1.648;2023-07-09T02:50:10;29.40;;;3.72;;
71108;SDS011;59614;51.012;-1.648;2023-07-09T02:52:35;6.60;;;3.05;;
71108;SDS011;59614;51.012;-1.648;2023-07-09T02:55:00;33.75;;;3.60;;
71108;SDS011;59614;51.012;-1.648;2023-07-09T02:57:26;57.92;;;3.55;;
71108;SDS011;59614;51.012;-1.648;2023-07-09T02:59:51;4.90;;;3.00;;
71108;SDS011;59614;51.012;-1.648;2023-07-09T03:02:16;34.10;;;3.47;;
71108;SDS011;59614;51.012;-1.648;2023-07-09T03:04:42;50.03;;;3.55;;
71108;SDS011;59614;51.012;-1.648;2023-07-09T03:07:07;46.67;;;2.90;;
71108;SDS011;59614;51.012;-1.648;2023-07-09T03:09:33;21.55;;;3.08;;
71108;SDS011;59614;51.012;-1.648;2023-07-09T03:11:58;19.52;;;3.17;;
71108;SDS011;59614;51.012;-1.648;2023-07-09T03:14:23;7.80;;;2.63;;
71108;SDS011;59614;51.012;-1.648;2023-07-09T03:16:49;23.25;;;3.60;;
71108;SDS011;59614;51.012;-1.648;2023-07-09T03:19:14;19.70;;;3.40;;
71108;SDS011;59614;51.012;-1.648;2023-07-09T03:21:39;31.85;;;3.53;;
71108;SDS011;59614;51.012;-1.648;2023-07-09T03:24:05;20.15;;;3.80;;
71108;SDS011;59614;51.012;-1.648;2023-07-09T03:26:32;11.50;;;4.00;;
71108;SDS011;59614;51.012;-1.648;2023-07-09T03:28:57;7.70;;;3.45;;
71108;SDS011;59614;51.012;-1.648;2023-07-09T03:31:23;8.25;;;3.40;;
71108;SDS011;59614;51.012;-1.648;2023-07-09T03:33:49;17.35;;;3.70;;
71108;SDS011;59614;51.012;-1.648;2023-07-09T03:36:15;19.63;;;3.67;;
71108;SDS011;59614;51.012;-1.648;2023-07-09T03:38:40;18.55;;;3.25;;
71108;SDS011;59614;51.012;-1.648;2023-07-09T03:41:06;8.77;;;3.15;;
71108;SDS011;59614;51.012;-1.648;2023-07-09T03:43:31;4.65;;;2.55;;
71108;SDS011;59614;51.012;-1.648;2023-07-09T03:45:57;5.88;;;2.88;;
71108;SDS011;59614;51.012;-1.648;2023-07-09T03:48:23;6.22;;;2.95;;
71108;SDS011;59614;51.012;-1.648;2023-07-09T03:50:48;5.00;;;2.47;;
71108;SDS011;59614;51.012;-1.648;2023-07-09T03:53:14;4.40;;;2.60;;
71108;SDS011;59614;51.012;-1.648;2023-07-09T03:55:41;7.85;;;3.33;;
71108;SDS011;59614;51.012;-1.648;2023-07-09T03:58:06;4.53;;;3.17;;
71108;SDS011;59614;51.012;-1.648;2023-07-09T04:00:32;5.70;;;3.05;;
71108;SDS011;59614;51.012;-1.648;2023-07-09T04:02:58;5.28;;;3.42;;
71108;SDS011;59614;51.012;-1.648;2023-07-09T04:05:24;7.75;;;3.58;;
71108;SDS011;59614;51.012;-1.648;2023-07-09T04:07:50;6.05;;;3.00;;
71108;SDS011;59614;51.012;-1.648;2023-07-09T04:10:15;10.77;;;3.90;;
71108;SDS011;59614;51.012;-1.648;2023-07-09T04:12:41;6.57;;;3.22;;
71108;SDS011;59614;51.012;-1.648;2023-07-09T04:15:07;11.13;;;3.55;;
71108;SDS011;59614;51.012;-1.648;2023-07-09T04:17:33;15.60;;;2.90;;
71108;SDS011;59614;51.012;-1.648;2023-07-09T04:19:58;14.55;;;2.97;;
71108;SDS011;59614;51.012;-1.648;2023-07-09T04:22:24;20.65;;;3.33;;
71108;SDS011;59614;51.012;-1.648;2023-07-09T04:24:49;11.23;;;3.20;;
71108;SDS011;59614;51.012;-1.648;2023-07-09T04:27:15;10.77;;;3.60;;
71108;SDS011;59614;51.012;-1.648;2023-07-09T04:29:41;9.23;;;3.33;;
71108;SDS011;59614;51.012;-1.648;2023-07-09T04:32:07;10.68;;;3.50;;
71108;SDS011;59614;51.012;-1.648;2023-07-09T04:34:37;8.85;;;3.50;;
71108;SDS011;59614;51.012;-1.648;2023-07-09T04:37:04;9.75;;;3.92;;
71108;SDS011;59614;51.012;-1.648;2023-07-09T04:39:30;14.82;;;3.78;;
71108;SDS011;59614;51.012;-1.648;2023-07-09T04:41:56;12.63;;;3.90;;
71108;SDS011;59614;51.012;-1.648;2023-07-09T04:44:22;7.90;;;3.20;;
71108;SDS011;59614;51.012;-1.648;2023-07-09T04:46:47;32.28;;;4.40;;
71108;SDS011;59614;51.012;-1.648;2023-07-09T04:49:14;33.47;;;3.72;;
71108;SDS011;59614;51.012;-1.648;2023-07-09T04:51:39;19.67;;;3.50;;
71108;SDS011;59614;51.012;-1.648;2023-07-09T04:54:05;32.53;;;3.97;;
71108;SDS011;59614;51.012;-1.648;2023-07-09T04:56:30;24.90;;;3.70;;
71108;SDS011;59614;51.012;-1.648;2023-07-09T04:58:56;22.08;;;3.90;;
71108;SDS011;59614;51.012;-1.648;2023-07-09T05:01:21;9.90;;;3.78;;
71108;SDS011;59614;51.012;-1.648;2023-07-09T05:03:47;15.10;;;3.80;;
71108;SDS011;59614;51.012;-1.648;2023-07-09T05:06:13;10.75;;;3.97;;
71108;SDS011;59614;51.012;-1.648;2023-07-09T05:08:38;10.18;;;3.60;;
71108;SDS011;59614;51.012;-1.648;2023-07-09T05:11:03;6.82;;;3.30;;
71108;SDS011;59614;51.012;-1.648;2023-07-09T05:13:29;7.10;;;2.95;;
71108;SDS011;59614;51.012;-1.648;2023-07-09T05:15:54;7.40;;;2.78;;
71108;SDS011;59614;51.012;-1.648;2023-07-09T05:18:20;9.32;;;3.13;;
71108;SDS011;59614;51.012;-1.648;2023-07-09T05:20:46;13.23;;;3.42;;
71108;SDS011;59614;51.012;-1.648;2023-07-09T05:23:12;10.20;;;3.50;;
71108;SDS011;59614;51.012;-1.648;2023-07-09T05:25:38;8.00;;;3.10;;
71108;SDS011;59614;51.012;-1.648;2023-07-09T05:28:03;9.25;;;3.10;;
71108;SDS011;59614;51.012;-1.648;2023-07-09T05:30:30;7.13;;;3.33;;
71108;SDS011;59614;51.012;-1.648;2023-07-09T05:32:55;9.18;;;3.60;;
71108;SDS011;59614;51.012;-1.648;2023-07-09T05:35:24;14.93;;;3.40;;
71108;SDS011;59614;51.012;-1.648;2023-07-09T05:37:52;10.40;;;2.87;;
71108;SDS011;59614;51.012;-1.648;2023-07-09T05:40:18;14.90;;;3.35;;
71108;SDS011;59614;51.012;-1.648;2023-07-09T05:42:44;11.40;;;3.15;;
71108;SDS011;59614;51.012;-1.648;2023-07-09T05:45:09;8.77;;;3.35;;
71108;SDS011;59614;51.012;-1.648;2023-07-09T05:47:35;9.25;;;2.88;;
71108;SDS011;59614;51.012;-1.648;2023-07-09T05:50:00;8.10;;;3.30;;
71108;SDS011;59614;51.012;-1.648;2023-07-09T05:52:26;13.63;;;3.00;;
71108;SDS011;59614;51.012;-1.648;2023-07-09T05:54:54;6.15;;;2.80;;
71108;SDS011;59614;51.012;-1.648;2023-07-09T05:57:20;9.30;;;2.95;;
71108;SDS011;59614;51.012;-1.648;2023-07-09T05:59:46;13.23;;;3.60;;
71108;SDS011;59614;51.012;-1.648;2023-07-09T06:02:12;10.82;;;2.70;;
71108;SDS011;59614;51.012;-1.648;2023-07-09T06:04:39;9.10;;;3.03;;
71108;SDS011;59614;51.012;-1.648;2023-07-09T06:07:04;7.13;;;2.95;;
71108;SDS011;59614;51.012;-1.648;2023-07-09T06:09:30;10.35;;;3.47;;
71108;SDS011;59614;51.012;-1.648;2023-07-09T06:11:56;15.73;;;3.53;;
71108;SDS011;59614;51.012;-1.648;2023-07-09T06:14:22;11.32;;;3.60;;
71108;SDS011;59614;51.012;-1.648;2023-07-09T06:16:47;15.35;;;3.58;;
71108;SDS011;59614;51.012;-1.648;2023-07-09T06:19:13;19.20;;;4.20;;
71108;SDS011;59614;51.012;-1.648;2023-07-09T06:21:39;11.90;;;4.18;;
71108;SDS011;59614;51.012;-1.648;2023-07-09T06:24:05;15.57;;;3.92;;
71108;SDS011;59614;51.012;-1.648;2023-07-09T06:26:32;14.23;;;3.47;;
71108;SDS011;59614;51.012;-1.648;2023-07-09T06:28:57;8.40;;;3.05;;
71108;SDS011;59614;51.012;-1.648;2023-07-09T06:31:23;10.07;;;3.38;;
71108;SDS011;59614;51.012;-1.648;2023-07-09T06:33:49;12.27;;;3.75;;
71108;SDS011;59614;51.012;-1.648;2023-07-09T06:36:16;16.45;;;4.13;;
71108;SDS011;59614;51.012;-1.648;2023-07-09T06:38:42;18.13;;;4.30;;
71108;SDS011;59614;51.012;-1.648;2023-07-09T06:41:08;11.18;;;3.30;;
71108;SDS011;59614;51.012;-1.648;2023-07-09T06:43:34;18.30;;;3.97;;
71108;SDS011;59614;51.012;-1.648;2023-07-09T06:46:00;14.13;;;3.85;;
71108;SDS011;59614;51.012;-1.648;2023-07-09T06:48:27;11.88;;;3.30;;
71108;SDS011;59614;51.012;-1.648;2023-07-09T06:50:56;17.33;;;4.07;;
71108;SDS011;59614;51.012;-1.648;2023-07-09T06:53:22;18.90;;;3.72;;
71108;SDS011;59614;51.012;-1.648;2023-07-09T06:55:48;12.10;;;3.83;;
71108;SDS011;59614;51.012;-1.648;2023-07-09T06:58:15;15.02;;;4.72;;
71108;SDS011;59614;51.012;-1.648;2023-07-09T07:00:41;21.38;;;4.97;;
71108;SDS011;59614;51.012;-1.648;2023-07-09T07:03:06;14.95;;;4.90;;
71108;SDS011;59614;51.012;-1.648;2023-07-09T07:05:32;15.43;;;5.05;;
71108;SDS011;59614;51.012;-1.648;2023-07-09T07:07:58;22.85;;;5.45;;
71108;SDS011;59614;51.012;-1.648;2023-07-09T07:10:24;12.10;;;4.45;;
71108;SDS011;59614;51.012;-1.648;2023-07-09T07:12:51;14.15;;;4.40;;
71108;SDS011;59614;51.012;-1.648;2023-07-09T07:15:17;15.38;;;4.47;;
71108;SDS011;59614;51.012;-1.648;2023-07-09T07:17:43;11.60;;;3.80;;
71108;SDS011;59614;51.012;-1.648;2023-07-09T07:20:09;11.82;;;3.60;;
71108;SDS011;59614;51.012;-1.648;2023-07-09T07:22:35;8.75;;;3.80;;
71108;SDS011;59614;51.012;-1.648;2023-07-09T07:25:02;20.17;;;4.53;;
71108;SDS011;59614;51.012;-1.648;2023-07-09T07:27:28;20.00;;;4.30;;
71108;SDS011;59614;51.012;-1.648;2023-07-09T07:29:53;13.30;;;4.22;;
71108;SDS011;59614;51.012;-1.648;2023-07-09T07:32:19;17.08;;;4.55;;
71108;SDS011;59614;51.012;-1.648;2023-07-09T07:34:46;15.45;;;4.97;;
71108;SDS011;59614;51.012;-1.648;2023-07-09T07:37:12;21.83;;;5.18;;
71108;SDS011;59614;51.012;-1.648;2023-07-09T07:39:38;20.98;;;5.47;;
71108;SDS011;59614;51.012;-1.648;2023-07-09T07:42:03;13.85;;;5.38;;
71108;SDS011;59614;51.012;-1.648;2023-07-09T07:44:29;21.52;;;6.15;;
71108;SDS011;59614;51.012;-1.648;2023-07-09T07:46:54;20.55;;;6.22;;
71108;SDS011;59614;51.012;-1.648;2023-07-09T07:49:19;16.95;;;6.53;;
71108;SDS011;59614;51.012;-1.648;2023-07-09T07:51:45;18.40;;;6.20;;
71108;SDS011;59614;51.012;-1.648;2023-07-09T07:54:10;20.98;;;6.63;;
71108;SDS011;59614;51.012;-1.648;2023-07-09T07:56:36;25.33;;;6.65;;
71108;SDS011;59614;51.012;-1.648;2023-07-09T07:59:02;21.52;;;6.32;;
71108;SDS011;59614;51.012;-1.648;2023-07-09T08:01:28;17.25;;;5.63;;
71108;SDS011;59614;51.012;-1.648;2023-07-09T08:03:53;18.02;;;6.25;;
71108;SDS011;59614;51.012;-1.648;2023-07-09T08:06:19;15.50;;;5.35;;
71108;SDS011;59614;51.012;-1.648;2023-07-09T08:08:45;25.40;;;6.85;;
71108;SDS011;59614;51.012;-1.648;2023-07-09T08:11:10;21.20;;;5.22;;
71108;SDS011;59614;51.012;-1.648;2023-07-09T08:13:36;22.38;;;5.63;;
71108;SDS011;59614;51.012;-1.648;2023-07-09T08:16:02;18.40;;;5.03;;
71108;SDS011;59614;51.012;-1.648;2023-07-09T08:18:28;24.67;;;5.55;;
71108;SDS011;59614;51.012;-1.648;2023-07-09T08:20:54;17.30;;;4.88;;
71108;SDS011;59614;51.012;-1.648;2023-07-09T08:23:19;17.88;;;5.03;;
71108;SDS011;59614;51.012;-1.648;2023-07-09T08:25:51;19.10;;;4.95;;
71108;SDS011;59614;51.012;-1.648;2023-07-09T08:28:18;19.27;;;5.00;;
71108;SDS011;59614;51.012;-1.648;2023-07-09T08:30:43;19.90;;;5.50;;
71108;SDS011;59614;51.012;-1.648;2023-07-09T08:33:08;23.33;;;5.18;;
71108;SDS011;59614;51.012;-1.648;2023-07-09T08:35:35;15.43;;;4.80;;
71108;SDS011;59614;51.012;-1.648;2023-07-09T08:38:00;21.00;;;4.47;;
71108;SDS011;59614;51.012;-1.648;2023-07-09T08:40:26;21.33;;;4.93;;
71108;SDS011;59614;51.012;-1.648;2023-07-09T08:42:52;16.13;;;4.30;;
71108;SDS011;59614;51.012;-1.648;2023-07-09T08:45:42;13.68;;;3.60;;
71108;SDS011;59614;51.012;-1.648;2023-07-09T08:48:18;14.27;;;3.80;;
71108;SDS011;59614;51.012;-1.648;2023-07-09T08:50:56;19.65;;;4.15;;
71108;SDS011;59614;51.012;-1.648;2023-07-09T08:53:38;21.92;;;4.15;;
71108;SDS011;59614;51.012;-1.648;2023-07-09T08:56:10;20.80;;;4.90;;
71108;SDS011;59614;51.012;-1.648;2023-07-09T08:58:39;16.30;;;4.00;;
71108;SDS011;59614;51.012;-1.648;2023-07-09T09:01:06;13.88;;;3.97;;
71108;SDS011;59614;51.012;-1.648;2023-07-09T09:03:43;21.38;;;4.25;;
71108;SDS011;59614;51.012;-1.648;2023-07-09T09:06:16;21.65;;;4.55;;
71108;SDS011;59614;51.012;-1.648;2023-07-09T09:11:34;21.30;;;4.32;;
71108;SDS011;59614;51.012;-1.648;2023-07-09T09:14:18;18.85;;;4.50;;
71108;SDS011;59614;51.012;-1.648;2023-07-09T09:16:44;18.40;;;3.60;;
71108;SDS011;59614;51.012;-1.648;2023-07-09T09:19:22;14.77;;;3.40;;
71108;SDS011;59614;51.012;-1.648;2023-07-09T09:21:54;17.55;;;4.07;;
71108;SDS011;59614;51.012;-1.648;2023-07-09T09:24:32;18.00;;;3.95;;
71108;SDS011;59614;51.012;-1.648;2023-07-09T09:27:01;18.65;;;4.20;;
71108;SDS011;59614;51.012;-1.648;2023-07-09T09:29:27;16.55;;;3.45;;
71108;SDS011;59614;51.012;-1.648;2023-07-09T09:31:56;16.20;;;3.50;;
71108;SDS011;59614;51.012;-1.648;2023-07-09T09:34:28;18.42;;;3.65;;
71108;SDS011;59614;51.012;-1.648;2023-07-09T09:36:55;15.07;;;3.33;;
71108;SDS011;59614;51.012;-1.648;2023-07-09T09:39:23;14.52;;;3.30;;
71108;SDS011;59614;51.012;-1.648;2023-07-09T09:41:51;12.00;;;3.27;;
71108;SDS011;59614;51.012;-1.648;2023-07-09T09:44:25;16.63;;;4.00;;
71108;SDS011;59614;51.012;-1.648;2023-07-09T09:46:52;19.92;;;3.78;;
71108;SDS011;59614;51.012;-1.648;2023-07-09T09:49:21;16.88;;;3.65;;
71108;SDS011;59614;51.012;-1.648;2023-07-09T09:51:46;11.90;;;3.20;;
71108;SDS011;59614;51.012;-1.648;2023-07-09T09:54:24;12.57;;;3.47;;
71108;SDS011;59614;51.012;-1.648;2023-07-09T09:56:52;19.90;;;4.03;;
71108;SDS011;59614;51.012;-1.648;2023-07-09T09:59:40;20.27;;;3.78;;
71108;SDS011;59614;51.012;-1.648;2023-07-09T10:02:12;18.95;;;3.95;;
71108;SDS011;59614;51.012;-1.648;2023-07-09T10:04:50;17.42;;;4.00;;
71108;SDS011;59614;51.012;-1.648;2023-07-09T10:09:50;22.42;;;4.07;;
71108;SDS011;59614;51.012;-1.648;2023-07-09T10:12:31;15.88;;;3.50;;
71108;SDS011;59614;51.012;-1.648;2023-07-09T10:20:46;15.32;;;3.53;;
71108;SDS011;59614;51.012;-1.648;2023-07-09T10:23:25;15.52;;;3.45;;
71108;SDS011;59614;51.012;-1.648;2023-07-09T10:31:28;15.65;;;3.45;;
71108;SDS011;59614;51.012;-1.648;2023-07-09T10:34:27;14.93;;;4.13;;
71108;SDS011;59614;51.012;-1.648;2023-07-09T10:39:44;14.63;;;3.63;;
71108;SDS011;59614;51.012;-1.648;2023-07-09T10:42:18;20.75;;;4.30;;
71108;SDS011;59614;51.012;-1.648;2023-07-09T10:44:51;19.45;;;4.47;;
71108;SDS011;59614;51.012;-1.648;2023-07-09T10:47:27;19.15;;;4.05;;
71108;SDS011;59614;51.012;-1.648;2023-07-09T10:49:57;15.77;;;4.00;;
71108;SDS011;59614;51.012;-1.648;2023-07-09T10:52:27;19.55;;;3.83;;
71108;SDS011;59614;51.012;-1.648;2023-07-09T11:00:24;21.50;;;4.68;;
71108;SDS011;59614;51.012;-1.648;2023-07-09T11:03:11;15.25;;;4.22;;
71108;SDS011;59614;51.012;-1.648;2023-07-09T11:05:38;20.88;;;4.07;;
71108;SDS011;59614;51.012;-1.648;2023-07-09T11:08:06;17.23;;;4.18;;
71108;SDS011;59614;51.012;-1.648;2023-07-09T11:10:41;14.75;;;3.70;;
71108;SDS011;59614;51.012;-1.648;2023-07-09T11:15:43;21.05;;;3.67;;
71108;SDS011;59614;51.012;-1.648;2023-07-09T11:18:16;19.70;;;4.05;;
71108;SDS011;59614;51.012;-1.648;2023-07-09T11:20:55;18.70;;;4.00;;
71108;SDS011;59614;51.012;-1.648;2023-07-09T11:23:25;17.52;;;3.80;;
71108;SDS011;59614;51.012;-1.648;2023-07-09T11:26:02;13.27;;;3.40;;
71108;SDS011;59614;51.012;-1.648;2023-07-09T11:28:39;16.58;;;3.53;;
71108;SDS011;59614;51.012;-1.648;2023-07-09T11:31:07;16.00;;;3.88;;
71108;SDS011;59614;51.012;-1.648;2023-07-09T11:33:56;14.65;;;3.55;;
71108;SDS011;59614;51.012;-1.648;2023-07-09T11:36:27;12.18;;;3.85;;
71108;SDS011;59614;51.012;-1.648;2023-07-09T11:38:54;11.75;;;3.38;;
71108;SDS011;59614;51.012;-1.648;2023-07-09T11:41:27;16.63;;;3.80;;
71108;SDS011;59614;51.012;-1.648;2023-07-09T11:46:34;10.52;;;3.10;;
71108;SDS011;59614;51.012;-1.648;2023-07-09T11:49:02;13.18;;;3.40;;
71108;SDS011;59614;51.012;-1.648;2023-07-09T11:51:37;11.27;;;3.28;;
71108;SDS011;59614;51.012;-1.648;2023-07-09T11:54:09;10.98;;;3.00;;
71108;SDS011;59614;51.012;-1.648;2023-07-09T11:56:38;16.00;;;3.28;;
71108;SDS011;59614;51.012;-1.648;2023-07-09T11:59:03;12.07;;;2.92;;
71108;SDS011;59614;51.012;-1.648;2023-07-09T12:01:34;17.55;;;3.25;;
71108;SDS011;59614;51.012;-1.648;2023-07-09T12:06:37;11.68;;;2.85;;
71108;SDS011;59614;51.012;-1.648;2023-07-09T12:09:05;18.25;;;3.85;;
71108;SDS011;59614;51.012;-1.648;2023-07-09T12:11:31;11.43;;;3.13;;
71108;SDS011;59614;51.012;-1.648;2023-07-09T12:14:02;11.75;;;3.35;;
71108;SDS011;59614;51.012;-1.648;2023-07-09T12:16:35;11.13;;;2.83;;
71108;SDS011;59614;51.012;-1.648;2023-07-09T12:19:02;9.43;;;3.08;;
71108;SDS011;59614;51.012;-1.648;2023-07-09T12:21:29;15.88;;;3.47;;
71108;SDS011;59614;51.012;-1.648;2023-07-09T12:23:56;12.50;;;3.38;;
71108;SDS011;59614;51.012;-1.648;2023-07-09T12:26:22;11.43;;;2.97;;
71108;SDS011;59614;51.012;-1.648;2023-07-09T12:28:56;10.07;;;3.13;;
71108;SDS011;59614;51.012;-1.648;2023-07-09T12:31:29;10.13;;;3.20;;
71108;SDS011;59614;51.012;-1.648;2023-07-09T12:33:56;10.68;;;2.72;;
71108;SDS011;59614;51.012;-1.648;2023-07-09T12:36:24;10.27;;;2.90;;
71108;SDS011;59614;51.012;-1.648;2023-07-09T12:38:52;11.68;;;3.08;;
71108;SDS011;59614;51.012;-1.648;2023-07-09T12:41:25;7.97;;;2.70;;
71108;SDS011;59614;51.012;-1.648;2023-07-09T12:43:54;11.10;;;3.10;;
71108;SDS011;59614;51.012;-1.648;2023-07-09T12:46:20;8.63;;;2.65;;
71108;SDS011;59614;51.012;-1.648;2023-07-09T12:48:47;8.40;;;2.70;;
71108;SDS011;59614;51.012;-1.648;2023-07-09T12:51:15;8.30;;;2.88;;
71108;SDS011;59614;51.012;-1.648;2023-07-09T12:53:45;11.05;;;2.85;;
71108;SDS011;59614;51.012;-1.648;2023-07-09T12:56:11;8.73;;;2.88;;
71108;SDS011;59614;51.012;-1.648;2023-07-09T12:58:39;9.02;;;2.85;;
71108;SDS011;59614;51.012;-1.648;2023-07-09T13:01:05;7.30;;;2.60;;
71108;SDS011;59614;51.012;-1.648;2023-07-09T13:03:38;9.70;;;2.85;;
71108;SDS011;59614;51.012;-1.648;2023-07-09T13:06:04;9.02;;;2.90;;
71108;SDS011;59614;51.012;-1.648;2023-07-09T13:08:33;9.65;;;2.70;;
71108;SDS011;59614;51.012;-1.648;2023-07-09T13:11:16;10.07;;;2.72;;
71108;SDS011;59614;51.012;-1.648;2023-07-09T13:13:53;12.27;;;3.08;;
71108;SDS011;59614;51.012;-1.648;2023-07-09T13:16:23;10.23;;;3.00;;
71108;SDS011;59614;51.012;-1.648;2023-07-09T13:18:48;12.07;;;3.13;;
71108;SDS011;59614;51.012;-1.648;2023-07-09T13:21:16;10.45;;;3.03;;
71108;SDS011;59614;51.012;-1.648;2023-07-09T13:23:42;12.95;;;3.15;;
71108;SDS011;59614;51.012;-1.648;2023-07-09T13:26:08;11.48;;;3.30;;
71108;SDS011;59614;51.012;-1.648;2023-07-09T13:28:34;13.13;;;3.00;;
71108;SDS011;59614;51.012;-1.648;2023-07-09T13:31:08;11.85;;;2.95;;
71108;SDS011;59614;51.012;-1.648;2023-07-09T13:33:37;10.57;;;3.17;;
71108;SDS011;59614;51.012;-1.648;2023-07-09T13:36:03;13.10;;;3.38;;
71108;SDS011;59614;51.012;-1.648;2023-07-09T13:38:29;10.43;;;3.13;;
71108;SDS011;59614;51.012;-1.648;2023-07-09T13:40:57;14.57;;;3.53;;
71108;SDS011;59614;51.012;-1.648;2023-07-09T13:45:58;14.00;;;3.28;;
71108;SDS011;59614;51.012;-1.648;2023-07-09T13:50:52;11.95;;;3.17;;
71108;SDS011;59614;51.012;-1.648;2023-07-09T13:55:46;10.65;;;3.20;;
71108;SDS011;59614;51.012;-1.648;2023-07-09T13:58:12;11.85;;;3.25;;
71108;SDS011;59614;51.012;-1.648;2023-07-09T14:00:40;10.98;;;3.50;;
71108;SDS011;59614;51.012;-1.648;2023-07-09T14:03:23;14.82;;;3.75;;
71108;SDS011;59614;51.012;-1.648;2023-07-09T14:05:50;11.52;;;3.60;;
71108;SDS011;59614;51.012;-1.648;2023-07-09T14:08:16;9.60;;;3.25;;
71108;SDS011;59614;51.012;-1.648;2023-07-09T14:10:44;9.00;;;2.95;;
71108;SDS011;59614;51.012;-1.648;2023-07-09T14:13:16;11.43;;;3.33;;
71108;SDS011;59614;51.012;-1.648;2023-07-09T14:15:43;11.35;;;3.13;;
71108;SDS011;59614;51.012;-1.648;2023-07-09T14:18:13;13.52;;;3.10;;
71108;SDS011;59614;51.012;-1.648;2023-07-09T14:20:41;13.70;;;3.63;;
71108;SDS011;59614;51.012;-1.648;2023-07-09T14:23:11;12.25;;;3.17;;
71108;SDS011;59614;51.012;-1.648;2023-07-09T14:25:38;15.25;;;3.58;;
71108;SDS011;59614;51.012;-1.648;2023-07-09T14:28:04;13.48;;;3.45;;
71108;SDS011;59614;51.012;-1.648;2023-07-09T14:30:33;9.48;;;3.03;;
71108;SDS011;59614;51.012;-1.648;2023-07-09T14:32:59;10.23;;;3.10;;
71108;SDS011;59614;51.012;-1.648;2023-07-09T14:35:25;12.77;;;3.25;;
71108;SDS011;59614;51.012;-1.648;2023-07-09T14:37:52;12.68;;;3.10;;
71108;SDS011;59614;51.012;-1.648;2023-07-09T14:40:19;12.70;;;3.33;;
71108;SDS011;59614;51.012;-1.648;2023-07-09T14:42:47;10.10;;;3.45;;
71108;SDS011;59614;51.012;-1.648;2023-07-09T14:47:50;16.13;;;3.65;;
71108;SDS011;59614;51.012;-1.648;2023-07-09T14:50:16;12.88;;;3.45;;
71108;SDS011;59614;51.012;-1.648;2023-07-09T14:52:43;11.38;;;3.40;;
71108;SDS011;59614;51.012;-1.648;2023-07-09T14:55:17;12.20;;;3.30;;
71108;SDS011;59614;51.012;-1.648;2023-07-09T14:57:46;11.77;;;3.35;;
71108;SDS011;59614;51.012;-1.648;2023-07-09T15:00:16;11.40;;;2.90;;
71108;SDS011;59614;51.012;-1.648;2023-07-09T15:02:46;11.82;;;3.33;;
71108;SDS011;59614;51.012;-1.648;2023-07-09T15:05:16;12.00;;;3.30;;
71108;SDS011;59614;51.012;-1.648;2023-07-09T15:07:46;10.35;;;2.92;;
71108;SDS011;59614;51.012;-1.648;2023-07-09T15:10:14;12.77;;;3.20;;
71108;SDS011;59614;51.012;-1.648;2023-07-09T15:12:41;8.88;;;2.95;;
71108;SDS011;59614;51.012;-1.648;2023-07-09T15:17:39;9.45;;;2.58;;
71108;SDS011;59614;51.012;-1.648;2023-07-09T15:20:04;11.25;;;3.28;;
71108;SDS011;59614;51.012;-1.648;2023-07-09T15:22:31;9.50;;;3.13;;
71108;SDS011;59614;51.012;-1.648;2023-07-09T15:24:58;12.57;;;3.28;;